Time;durP1;ratioP1;P1;durP2;ratioP2;P2;SDS_P1;SDS_P2;PMS_P1;PMS_P2;Temp;Humidity;BMP_temperature;BMP_pressure;BME280_temperature;BME280_humidity;BME280_pressure;Samples;Min_cycle;Max_cycle;Signal;HPM_P1;HPM_P2
2023/07/06 00:00:48;;;;;;;9.53;3.30;;;;;;;-145.18;100.00;46650.63;5093460;28;20028;-67
2023/07/06 00:03:14;;;;;;;10.80;3.13;;;;;;;-145.18;100.00;46650.63;5093657;28;20365;-62
2023/07/06 00:05:46;;;;;;;7.13;3.27;;;;;;;-145.18;100.00;46656.50;5062161;28;20063;-62
2023/07/06 00:08:18;;;;;;;8.30;3.03;;;;;;;-145.18;100.00;46646.72;5076077;28;20037;-62
2023/07/06 00:10:45;;;;;;;8.33;3.27;;;;;;;-145.18;100.00;46654.53;5081627;28;20111;-62
2023/07/06 00:13:11;;;;;;;14.30;4.03;;;;;;;-145.18;100.00;46652.59;5091070;28;20498;-62
2023/07/06 00:15:38;;;;;;;6.90;2.70;;;;;;;-145.18;100.00;46654.53;5073995;28;20020;-62
2023/07/06 00:18:04;;;;;;;8.13;2.97;;;;;;;-145.18;100.00;46650.63;5087608;28;20062;-62
2023/07/06 00:20:37;;;;;;;11.33;3.50;;;;;;;-145.18;100.00;46650.63;5093399;28;20118;-62
2023/07/06 00:23:03;;;;;;;14.00;3.10;;;;;;;-145.18;100.00;46652.59;5079208;28;20029;-62
2023/07/06 00:25:28;;;;;;;12.50;3.20;;;;;;;-145.18;100.00;46652.59;5092985;28;20372;-62
2023/07/06 00:27:54;;;;;;;6.63;2.50;;;;;;;-145.18;100.00;46660.41;5092532;28;20032;-62
2023/07/06 00:30:40;;;;;;;11.30;3.20;;;;;;;-145.18;100.00;46652.59;5083235;28;20032;-62
2023/07/06 00:33:06;;;;;;;7.22;3.22;;;;;;;-145.18;100.00;46650.63;5105649;28;20028;-62
2023/07/06 00:35:33;;;;;;;7.63;2.87;;;;;;;-145.18;100.00;46656.50;5080751;28;20043;-62
2023/07/06 00:37:59;;;;;;;9.73;2.87;;;;;;;-145.18;100.00;46658.44;5077797;28;20115;-62
2023/07/06 00:40:30;;;;;;;11.43;3.10;;;;;;;-145.18;100.00;46656.50;5094445;28;20466;-62
2023/07/06 00:42:55;;;;;;;9.20;2.93;;;;;;;-145.18;100.00;46660.41;5091258;28;20039;-61
2023/07/06 00:45:20;;;;;;;6.23;3.13;;;;;;;-145.18;100.00;46652.59;5070786;28;20031;-62
2023/07/06 00:47:55;;;;;;;6.77;2.73;;;;;;;-145.18;100.00;46654.53;5072943;28;20051;-62
2023/07/06 00:50:25;;;;;;;10.10;4.55;;;;;;;-145.18;100.00;46660.41;5073118;28;20036;-62
2023/07/06 00:52:54;;;;;;;7.47;3.07;;;;;;;-145.18;100.00;46654.53;5072710;28;20035;-62
2023/07/06 00:55:27;;;;;;;8.23;2.90;;;;;;;-145.18;100.00;46656.50;5072678;28;20032;-62
2023/07/06 00:57:59;;;;;;;8.50;2.87;;;;;;;-145.18;100.00;46656.50;5078317;28;20028;-62
2023/07/06 01:00:24;;;;;;;10.23;3.10;;;;;;;-145.18;100.00;46652.59;5092843;28;20104;-62
2023/07/06 01:02:53;;;;;;;10.83;3.10;;;;;;;-145.18;100.00;46652.59;5092688;28;20558;-62
2023/07/06 01:05:20;;;;;;;11.07;2.70;;;;;;;-145.18;100.00;46654.53;5082217;28;20046;-62
2023/07/06 01:07:48;;;;;;;7.87;3.00;;;;;;;-145.18;100.00;46656.50;5072372;28;20031;-62
2023/07/06 01:10:14;;;;;;;17.53;3.40;;;;;;;-145.18;100.00;46656.50;5072923;28;20071;-62
2023/07/06 01:12:40;;;;;;;7.77;2.83;;;;;;;-145.18;100.00;46656.50;5075251;28;20080;-67
2023/07/06 01:15:08;;;;;;;8.33;3.23;;;;;;;-145.18;100.00;46660.41;5092669;28;20032;-67
2023/07/06 01:17:47;;;;;;;6.50;3.00;;;;;;;-145.18;100.00;46656.50;5079697;28;20016;-67
2023/07/06 01:20:31;;;;;;;5.57;2.20;;;;;;;-145.18;100.00;46652.59;5092088;28;20031;-67
2023/07/06 01:23:01;;;;;;;7.77;3.00;;;;;;;-145.18;100.00;46660.41;5066680;28;20149;-67
2023/07/06 01:25:54;;;;;;;10.20;3.10;;;;;;;-145.18;100.00;46654.53;5079597;28;20054;-67
2023/07/06 01:28:41;;;;;;;13.77;3.40;;;;;;;-145.18;100.00;46654.53;5088855;28;20020;-67
2023/07/06 01:31:25;;;;;;;9.53;3.00;;;;;;;-145.18;100.00;46654.53;5075078;28;20020;-68
2023/07/06 01:33:59;;;;;;;7.67;3.00;;;;;;;-145.18;100.00;46654.53;5072755;28;20025;-67
2023/07/06 01:36:38;;;;;;;11.13;3.63;;;;;;;-145.18;100.00;46652.59;5074804;28;20024;-68
2023/07/06 01:39:17;;;;;;;11.53;3.73;;;;;;;-145.18;100.00;46654.53;5085175;28;20112;-68
2023/07/06 01:41:42;;;;;;;8.27;3.17;;;;;;;-145.18;100.00;46654.53;5075363;28;20032;-68
2023/07/06 01:44:12;;;;;;;9.37;3.03;;;;;;;-145.18;100.00;46652.59;5076782;28;20503;-68
2023/07/06 01:46:51;;;;;;;7.73;2.93;;;;;;;-145.18;100.00;46652.59;5072570;28;20021;-67
2023/07/06 01:49:18;;;;;;;5.70;2.67;;;;;;;-145.18;100.00;46648.69;5072688;28;20077;-67
2023/07/06 01:52:24;;;;;;;3.93;2.43;;;;;;;-145.18;100.00;46648.69;5073033;28;20031;-67
2023/07/06 01:55:14;;;;;;;10.97;2.57;;;;;;;-145.18;100.00;46656.50;5041359;28;20467;-67
2023/07/06 01:58:04;;;;;;;6.10;2.73;;;;;;;-145.18;100.00;46656.50;5072301;28;20480;-67
2023/07/06 02:00:32;;;;;;;6.07;2.67;;;;;;;-145.18;100.00;46652.59;5071364;28;20161;-67
2023/07/06 02:02:59;;;;;;;4.97;2.43;;;;;;;-145.18;100.00;46654.53;5081077;28;20537;-67
2023/07/06 02:05:25;;;;;;;4.77;2.43;;;;;;;-145.18;100.00;46650.63;5071701;28;20059;-69
2023/07/06 02:07:51;;;;;;;9.27;2.70;;;;;;;-145.18;100.00;46652.59;5090825;28;20376;-67
2023/07/06 02:10:18;;;;;;;7.10;3.03;;;;;;;-145.18;100.00;46646.72;5075933;28;20105;-67
2023/07/06 02:12:47;;;;;;;8.37;2.63;;;;;;;-145.18;100.00;46652.59;5084729;28;20051;-67
2023/07/06 02:15:16;;;;;;;9.70;3.03;;;;;;;-145.18;100.00;46650.63;5089062;28;20028;-67
2023/07/06 02:17:42;;;;;;;7.40;3.37;;;;;;;-145.18;100.00;46650.63;5101096;28;20040;-68
2023/07/06 02:20:09;;;;;;;9.60;3.30;;;;;;;-145.18;100.00;46654.53;5095300;28;20020;-67
2023/07/06 02:22:34;;;;;;;7.50;3.33;;;;;;;-145.18;100.00;46654.53;5095890;28;20054;-67
2023/07/06 02:24:59;;;;;;;7.30;3.00;;;;;;;-145.18;100.00;46650.63;5094172;28;20051;-68
2023/07/06 02:27:25;;;;;;;6.37;3.00;;;;;;;-145.18;100.00;46650.63;5077635;28;20444;-67
2023/07/06 02:29:50;;;;;;;8.73;3.50;;;;;;;-145.18;100.00;46650.63;5088009;28;20028;-68
2023/07/06 02:32:15;;;;;;;9.10;3.50;;;;;;;-145.18;100.00;46654.53;5095547;28;20173;-67
2023/07/06 02:34:41;;;;;;;8.63;3.57;;;;;;;-145.18;100.00;46656.50;5094617;28;20031;-67
2023/07/06 02:37:06;;;;;;;9.63;3.37;;;;;;;-145.18;100.00;46658.44;5100316;28;20463;-67
2023/07/06 02:39:31;;;;;;;9.60;3.63;;;;;;;-145.18;100.00;46648.69;5070228;28;20020;-67
2023/07/06 02:41:57;;;;;;;7.17;3.03;;;;;;;-145.18;100.00;46652.59;5075401;28;20032;-67
2023/07/06 02:44:23;;;;;;;9.60;3.70;;;;;;;-145.18;100.00;46652.59;5092194;28;20551;-68
2023/07/06 02:46:49;;;;;;;9.83;3.43;;;;;;;-145.18;100.00;46654.53;5077018;28;20055;-67
2023/07/06 02:49:16;;;;;;;7.27;3.20;;;;;;;-145.18;100.00;46652.59;5094580;28;20051;-67
2023/07/06 02:51:42;;;;;;;6.83;3.13;;;;;;;-145.18;100.00;46648.69;5095093;28;20028;-68
2023/07/06 02:54:09;;;;;;;6.73;3.30;;;;;;;-145.18;100.00;46654.53;5081037;28;20369;-68
2023/07/06 02:56:35;;;;;;;8.83;3.20;;;;;;;-145.18;100.00;46650.63;5084370;28;20035;-68
2023/07/06 02:59:00;;;;;;;7.10;2.97;;;;;;;-145.18;100.00;46652.59;5065449;28;20020;-67
2023/07/06 03:01:26;;;;;;;11.63;3.20;;;;;;;-145.18;100.00;46648.69;5084895;28;20034;-67
2023/07/06 03:03:51;;;;;;;7.00;2.90;;;;;;;-145.18;100.00;46648.69;5091295;28;20020;-67
2023/07/06 03:06:18;;;;;;;9.03;3.03;;;;;;;-145.18;100.00;46654.53;5086644;28;20059;-67
2023/07/06 03:08:44;;;;;;;9.60;3.20;;;;;;;-145.18;100.00;46654.53;5094206;28;20028;-67
2023/07/06 03:11:10;;;;;;;6.17;3.00;;;;;;;-145.18;100.00;46650.63;5091537;28;20028;-68
2023/07/06 03:13:36;;;;;;;10.77;3.27;;;;;;;-145.18;100.00;46654.53;5087792;28;20105;-67
2023/07/06 03:16:03;;;;;;;9.97;3.43;;;;;;;-145.18;100.00;46646.72;5084010;28;20032;-68
2023/07/06 03:18:28;;;;;;;12.37;3.37;;;;;;;-145.18;100.00;46656.50;5073952;28;20024;-67
2023/07/06 03:20:55;;;;;;;5.63;2.90;;;;;;;-145.18;100.00;46650.63;5089104;28;20048;-67
2023/07/06 03:23:21;;;;;;;5.80;2.43;;;;;;;-145.18;100.00;46654.53;5091315;28;20035;-67
2023/07/06 03:25:52;;;;;;;11.67;3.77;;;;;;;-145.18;100.00;46652.59;5094580;28;20070;-67
2023/07/06 03:28:19;;;;;;;12.33;3.30;;;;;;;-145.18;100.00;46650.63;5076642;28;20527;-67
2023/07/06 03:30:45;;;;;;;13.30;3.67;;;;;;;-145.18;100.00;46650.63;5074783;28;20024;-67
2023/07/06 03:33:11;;;;;;;10.17;3.10;;;;;;;-145.18;100.00;46648.69;5075009;28;20118;-67
2023/07/06 03:35:41;;;;;;;7.03;3.47;;;;;;;-145.18;100.00;46642.81;5062700;28;20040;-67
2023/07/06 03:38:06;;;;;;;18.37;3.67;;;;;;;-145.18;100.00;46644.78;5089234;28;20102;-67
2023/07/06 03:40:32;;;;;;;15.40;3.60;;;;;;;-145.18;100.00;46648.69;5069223;28;20082;-67
2023/07/06 03:42:58;;;;;;;7.13;3.30;;;;;;;-145.18;100.00;46646.72;5023710;28;20058;-67
2023/07/06 03:45:24;;;;;;;13.77;3.50;;;;;;;-145.18;100.00;46642.81;5074554;28;20642;-67
2023/07/06 03:47:52;;;;;;;13.70;4.77;;;;;;;-145.18;100.00;46646.72;5058742;28;20195;-67
2023/07/06 03:50:22;;;;;;;12.50;4.00;;;;;;;-145.18;100.00;46644.78;5074776;28;20028;-67
2023/07/06 03:52:47;;;;;;;15.37;4.10;;;;;;;-145.18;100.00;46644.78;5085302;28;20035;-67
2023/07/06 03:55:26;;;;;;;13.77;4.30;;;;;;;-145.18;100.00;46642.81;5046216;28;20029;-67
2023/07/06 03:57:52;;;;;;;13.63;4.03;;;;;;;-145.18;100.00;46642.81;5073261;28;20032;-67
2023/07/06 04:00:22;;;;;;;13.83;4.47;;;;;;;-145.18;100.00;46646.72;5080500;28;20393;-67
2023/07/06 04:02:55;;;;;;;15.33;4.50;;;;;;;-145.18;100.00;46640.88;5084333;28;20031;-67
2023/07/06 04:05:25;;;;;;;12.40;3.60;;;;;;;-145.18;100.00;46640.88;5073643;28;20107;-67
2023/07/06 04:07:52;;;;;;;9.93;4.63;;;;;;;-145.18;100.00;46638.91;5089548;28;20024;-67
2023/07/06 04:10:20;;;;;;;15.37;4.50;;;;;;;-145.18;100.00;46642.81;5086403;28;20024;-67
2023/07/06 04:12:45;;;;;;;17.17;4.50;;;;;;;-145.18;100.00;46640.88;5089799;28;20479;-67
2023/07/06 04:15:11;;;;;;;12.27;4.50;;;;;;;-145.18;100.00;46644.78;5086625;28;20024;-67
2023/07/06 04:17:36;;;;;;;13.37;4.20;;;;;;;-145.18;100.00;46635.00;5083669;28;20119;-67
2023/07/06 04:20:06;;;;;;;12.93;4.73;;;;;;;-145.18;100.00;46640.88;5083050;28;20106;-67
2023/07/06 04:22:31;;;;;;;14.23;5.90;;;;;;;-145.18;100.00;46640.88;5063600;28;20040;-67
2023/07/06 04:24:57;;;;;;;19.23;5.90;;;;;;;-145.18;100.00;46635.00;5084708;28;20074;-67
2023/07/06 04:27:22;;;;;;;15.27;4.77;;;;;;;-145.18;100.00;46640.88;5090903;28;20027;-67
2023/07/06 04:29:47;;;;;;;15.90;5.67;;;;;;;-145.18;100.00;46636.94;5094269;28;20032;-67
2023/07/06 04:32:14;;;;;;;18.23;5.43;;;;;;;-145.18;100.00;46638.91;5090837;28;20077;-67
2023/07/06 04:34:40;;;;;;;15.30;5.87;;;;;;;-145.18;100.00;46636.94;5086789;28;20107;-67
2023/07/06 04:37:05;;;;;;;9.80;5.73;;;;;;;-145.18;100.00;46642.81;5083660;28;20122;-67
2023/07/06 04:39:30;;;;;;;15.03;5.13;;;;;;;-145.18;100.00;46638.91;5085793;28;20029;-67
2023/07/06 04:41:56;;;;;;;16.93;5.83;;;;;;;-145.18;100.00;46640.88;5079331;28;20089;-67
2023/07/06 04:44:21;;;;;;;21.13;5.83;;;;;;;-145.18;100.00;46638.91;5074873;28;20428;-67
2023/07/06 04:46:47;;;;;;;16.37;6.23;;;;;;;-145.18;100.00;46638.91;5073787;28;20028;-67
2023/07/06 04:49:12;;;;;;;17.27;6.73;;;;;;;-145.18;100.00;46633.06;5073952;28;20101;-67
2023/07/06 04:51:38;;;;;;;17.93;6.33;;;;;;;-145.18;100.00;46636.94;5073776;28;20127;-67
2023/07/06 04:54:03;;;;;;;14.07;6.53;;;;;;;-145.18;100.00;46638.91;5083108;28;20028;-67
2023/07/06 04:56:30;;;;;;;16.67;6.90;;;;;;;-145.18;100.00;46638.91;5075624;28;20495;-67
2023/07/06 04:58:58;;;;;;;23.23;7.10;;;;;;;-145.18;100.00;46636.94;5085855;28;20039;-67
2023/07/06 05:01:24;;;;;;;20.83;7.03;;;;;;;-145.18;100.00;46636.94;5083135;28;20037;-67
2023/07/06 05:03:50;;;;;;;18.60;7.53;;;;;;;-145.18;100.00;46636.94;5084663;28;20071;-67
2023/07/06 05:06:15;;;;;;;22.87;8.93;;;;;;;-145.18;100.00;46633.06;5090911;28;20019;-67
2023/07/06 05:08:43;;;;;;;28.57;8.57;;;;;;;-145.18;100.00;46638.91;5089620;28;20040;-67
2023/07/06 05:11:09;;;;;;;19.57;7.73;;;;;;;-145.18;100.00;46636.94;5091078;28;20042;-67
2023/07/06 05:13:34;;;;;;;18.33;7.00;;;;;;;-145.18;100.00;46638.91;5059403;28;20025;-67
2023/07/06 05:16:00;;;;;;;22.17;9.20;;;;;;;-145.18;100.00;46636.94;5091672;28;20039;-67
2023/07/06 05:18:25;;;;;;;25.70;9.13;;;;;;;-145.18;100.00;46635.00;5077821;28;20039;-67
2023/07/06 05:20:57;;;;;;;22.17;9.37;;;;;;;-145.18;100.00;46638.91;5082341;28;20083;-67
2023/07/06 05:23:27;;;;;;;25.20;10.70;;;;;;;-145.18;100.00;46635.00;5075198;28;20020;-67
2023/07/06 05:25:53;;;;;;;27.33;10.20;;;;;;;-145.18;100.00;46633.06;5080862;28;20039;-67
2023/07/06 05:28:20;;;;;;;28.13;10.30;;;;;;;-145.18;100.00;46640.88;5085309;28;20025;-67
2023/07/06 05:30:47;;;;;;;21.53;9.40;;;;;;;-145.18;100.00;46636.94;5083309;28;20388;-67
2023/07/06 05:33:13;;;;;;;28.93;9.77;;;;;;;-145.18;100.00;46635.00;5090708;28;20035;-67
2023/07/06 05:35:39;;;;;;;30.70;11.50;;;;;;;-145.18;100.00;46642.81;5083094;28;20048;-67
2023/07/06 05:38:07;;;;;;;20.33;10.07;;;;;;;-145.18;100.00;46633.06;5060369;28;20040;-67
2023/07/06 05:40:32;;;;;;;22.30;10.07;;;;;;;-145.18;100.00;46638.91;5080066;28;20555;-67
2023/07/06 05:42:58;;;;;;;17.80;9.60;;;;;;;-145.18;100.00;46636.94;5078118;28;20135;-67
2023/07/06 05:45:25;;;;;;;29.57;11.20;;;;;;;-145.18;100.00;46636.94;5095563;28;20032;-67
2023/07/06 05:47:50;;;;;;;25.53;10.37;;;;;;;-145.18;100.00;46635.00;5077173;28;20118;-67
2023/07/06 05:50:16;;;;;;;21.50;10.87;;;;;;;-145.18;100.00;46635.00;5075604;28;20028;-67
2023/07/06 05:52:41;;;;;;;26.73;11.73;;;;;;;-145.18;100.00;46635.00;5077673;28;20808;-62
2023/07/06 05:55:07;;;;;;;27.53;11.33;;;;;;;-145.18;100.00;46635.00;5071844;28;20039;-62
2023/07/06 05:57:33;;;;;;;21.07;10.40;;;;;;;-145.18;100.00;46638.91;5071735;28;20063;-62
2023/07/06 05:59:58;;;;;;;24.13;11.27;;;;;;;-145.18;100.00;46633.06;5083516;28;20479;-62
2023/07/06 06:02:25;;;;;;;25.73;11.50;;;;;;;-145.18;100.00;46635.00;5073973;28;20476;-63
2023/07/06 06:04:51;;;;;;;24.33;11.07;;;;;;;-145.18;100.00;46635.00;5071873;28;20020;-62
2023/07/06 06:07:19;;;;;;;22.77;11.20;;;;;;;-145.18;100.00;46635.00;5054298;28;20029;-62
2023/07/06 06:09:45;;;;;;;30.37;11.63;;;;;;;-145.18;100.00;46636.94;5072121;28;20478;-62
2023/07/06 06:12:17;;;;;;;34.17;13.17;;;;;;;-145.18;100.00;46640.88;5071788;28;20048;-62
2023/07/06 06:14:43;;;;;;;25.33;12.40;;;;;;;-145.18;100.00;46638.91;5069169;28;20091;-62
2023/07/06 06:17:08;;;;;;;32.87;12.23;;;;;;;-145.18;100.00;46635.00;5072903;28;20037;-62
2023/07/06 06:19:37;;;;;;;23.53;10.80;;;;;;;-145.18;100.00;46636.94;5085300;28;20032;-62
2023/07/06 06:22:04;;;;;;;23.33;11.27;;;;;;;-145.18;100.00;46636.94;5091466;28;20542;-62
2023/07/06 06:24:30;;;;;;;25.90;10.80;;;;;;;-145.18;100.00;46638.91;5071802;28;20024;-62
2023/07/06 06:26:56;;;;;;;23.73;11.37;;;;;;;-145.18;100.00;46642.81;5060867;28;20541;-62
2023/07/06 06:29:21;;;;;;;27.90;11.27;;;;;;;-145.18;100.00;46640.88;5085716;28;20036;-62
2023/07/06 06:31:47;;;;;;;30.30;11.77;;;;;;;-145.18;100.00;46638.91;5073600;28;20077;-62
2023/07/06 06:34:12;;;;;;;29.57;11.53;;;;;;;-145.18;100.00;46640.88;5088119;28;20042;-62
2023/07/06 06:36:38;;;;;;;27.47;11.63;;;;;;;-145.18;100.00;46640.88;5056881;28;20415;-62
2023/07/06 06:39:04;;;;;;;29.77;10.70;;;;;;;-145.18;100.00;46644.78;5073068;28;20032;-62
2023/07/06 06:41:30;;;;;;;33.87;12.03;;;;;;;-145.18;100.00;46642.81;5084214;28;20028;-62
2023/07/06 06:43:56;;;;;;;29.50;10.57;;;;;;;-145.18;100.00;46646.72;5077475;28;20120;-62
2023/07/06 06:46:23;;;;;;;23.13;10.97;;;;;;;-145.18;100.00;46642.81;5077997;28;20028;-63
2023/07/06 06:48:49;;;;;;;24.10;10.97;;;;;;;-145.18;100.00;46642.81;5076576;28;20063;-63
2023/07/06 06:51:14;;;;;;;29.17;11.67;;;;;;;-145.18;100.00;46644.78;5078908;28;20029;-62
2023/07/06 06:53:40;;;;;;;22.23;11.37;;;;;;;-145.18;100.00;46640.88;5076376;28;20037;-62
2023/07/06 06:56:09;;;;;;;22.27;10.73;;;;;;;-145.18;100.00;46640.88;5074095;28;20032;-62
2023/07/06 06:58:36;;;;;;;21.00;11.27;;;;;;;-145.18;100.00;46646.72;5081814;28;20484;-63
2023/07/06 07:01:06;;;;;;;26.37;10.23;;;;;;;-145.18;100.00;46646.72;5057220;28;20132;-63
2023/07/06 07:03:32;;;;;;;25.57;11.43;;;;;;;-145.18;100.00;46648.69;5075993;28;20475;-62
2023/07/06 07:06:03;;;;;;;24.00;11.97;;;;;;;-145.18;100.00;46654.53;5079268;28;20071;-63
2023/07/06 07:08:28;;;;;;;25.60;11.07;;;;;;;-145.18;100.00;46650.63;5078642;28;20067;-63
2023/07/06 07:10:57;;;;;;;18.03;10.47;;;;;;;-145.18;100.00;46654.53;5084436;28;20063;-63
2023/07/06 07:13:23;;;;;;;24.93;11.40;;;;;;;-145.18;100.00;46650.63;5079464;28;20120;-63
2023/07/06 07:15:49;;;;;;;23.67;11.90;;;;;;;-145.18;100.00;46656.50;5067689;28;20031;-63
2023/07/06 07:18:15;;;;;;;25.07;12.07;;;;;;;-145.18;100.00;46660.41;5077465;28;20029;-62
2023/07/06 07:20:42;;;;;;;25.97;11.87;;;;;;;-145.18;100.00;46656.50;5061500;28;20032;-62
2023/07/06 07:23:08;;;;;;;22.93;10.70;;;;;;;-145.18;100.00;46658.44;5078980;28;20029;-63
2023/07/06 07:25:33;;;;;;;24.03;11.80;;;;;;;-145.18;100.00;46654.53;5060105;28;20400;-63
2023/07/06 07:27:59;;;;;;;29.43;12.37;;;;;;;-145.18;100.00;46656.50;5064936;28;20087;-63
2023/07/06 07:30:26;;;;;;;23.07;11.03;;;;;;;-145.18;100.00;46664.31;5080626;28;20048;-63
2023/07/06 07:32:51;;;;;;;22.50;10.97;;;;;;;-145.18;100.00;46660.41;5076065;28;20067;-62
2023/07/06 07:35:18;;;;;;;19.30;10.33;;;;;;;-145.18;100.00;46662.34;5076375;28;20037;-63
2023/07/06 07:37:50;;;;;;;21.43;10.50;;;;;;;-145.18;100.00;46666.25;5084068;28;20059;-63
2023/07/06 07:40:17;;;;;;;19.53;10.13;;;;;;;-145.18;100.00;46664.31;5089823;28;20032;-63
2023/07/06 07:42:46;;;;;;;18.97;10.97;;;;;;;-145.18;100.00;46666.25;5089550;28;20121;-63
2023/07/06 07:45:13;;;;;;;27.37;11.30;;;;;;;-145.18;100.00;46668.22;5061635;28;20385;-63
2023/07/06 07:47:38;;;;;;;17.07;10.20;;;;;;;-145.18;100.00;46666.25;5084053;28;20529;-63
2023/07/06 07:50:05;;;;;;;17.63;10.47;;;;;;;-145.18;100.00;46672.13;5092160;28;20032;-62
2023/07/06 07:52:30;;;;;;;17.17;10.03;;;;;;;-145.18;100.00;46674.06;5089097;28;20079;-63
2023/07/06 07:54:56;;;;;;;21.33;10.83;;;;;;;-145.18;100.00;46676.03;5075054;28;20484;-63
2023/07/06 07:57:21;;;;;;;23.27;9.03;;;;;;;-145.18;100.00;46672.13;5073729;28;20032;-63
2023/07/06 07:59:50;;;;;;;19.73;10.40;;;;;;;-145.18;100.00;46670.16;5074059;28;20025;-63
2023/07/06 08:02:16;;;;;;;18.67;9.10;;;;;;;-145.18;100.00;46676.03;5080546;28;20116;-63
2023/07/06 08:04:41;;;;;;;16.87;10.00;;;;;;;-145.18;100.00;46674.06;5085323;28;20111;-63
2023/07/06 08:07:07;;;;;;;20.67;9.90;;;;;;;-145.18;100.00;46670.16;5093178;28;20028;-63
2023/07/06 08:09:32;;;;;;;24.50;10.07;;;;;;;-145.18;100.00;46674.06;5083672;28;20035;-63
2023/07/06 08:11:58;;;;;;;16.63;9.33;;;;;;;-145.18;100.00;46670.16;5076435;28;20080;-67
2023/07/06 08:14:37;;;;;;;15.87;9.63;;;;;;;-145.18;100.00;46672.13;5088692;28;20433;-67
2023/07/06 08:17:07;;;;;;;15.53;8.67;;;;;;;-145.18;100.00;46677.97;5088171;28;20050;-67
2023/07/06 08:19:32;;;;;;;15.97;7.87;;;;;;;-145.18;100.00;46676.03;5077403;28;20085;-67
2023/07/06 08:21:59;;;;;;;17.17;8.77;;;;;;;-145.18;100.00;46681.88;5085891;28;20020;-67
2023/07/06 08:24:25;;;;;;;18.27;8.87;;;;;;;-145.18;100.00;46683.84;5090534;28;20088;-67
2023/07/06 08:26:50;;;;;;;18.50;7.70;;;;;;;-145.18;100.00;46681.88;5077209;28;20040;-67
2023/07/06 08:29:17;;;;;;;18.53;7.33;;;;;;;-145.18;100.00;46679.94;5079697;28;20029;-67
2023/07/06 08:31:45;;;;;;;24.23;7.83;;;;;;;-145.18;100.00;46683.84;5086944;28;20089;-67
2023/07/06 08:34:12;;;;;;;13.13;7.70;;;;;;;-145.18;100.00;46683.84;5091870;28;20028;-67
2023/07/06 08:36:37;;;;;;;11.40;7.70;;;;;;;-145.18;100.00;46679.94;5095628;28;20480;-67
2023/07/06 08:39:05;;;;;;;16.00;6.73;;;;;;;-145.18;100.00;46674.06;5082056;28;20033;-67
2023/07/06 08:41:36;;;;;;;14.70;6.33;;;;;;;-145.18;100.00;46679.94;5072519;28;20521;-67
2023/07/06 08:44:03;;;;;;;10.53;5.60;;;;;;;-145.18;100.00;46668.22;5080787;28;20036;-67
2023/07/06 08:46:32;;;;;;;13.37;6.10;;;;;;;-145.18;100.00;46656.50;5083884;28;20082;-68
2023/07/06 08:48:58;;;;;;;10.40;6.67;;;;;;;-145.18;100.00;46650.63;5073438;28;20068;-67
2023/07/06 08:51:30;;;;;;;11.20;5.70;;;;;;;-145.18;100.00;46574.44;5085974;28;20052;-67
2023/07/06 08:54:02;;;;;;;14.27;5.87;;;;;;;-145.18;100.00;46554.91;5077196;28;20043;-67
2023/07/06 08:56:33;;;;;;;15.10;5.20;;;;;;;-145.18;100.00;46549.06;5077625;28;20032;-68
2023/07/06 08:59:01;;;;;;;14.93;6.23;;;;;;;-145.18;100.00;46558.81;5085583;28;20107;-67
2023/07/06 09:01:27;;;;;;;16.20;6.93;;;;;;;-145.18;100.00;46554.91;5054420;28;20040;-67
2023/07/06 09:03:59;;;;;;;9.40;6.30;;;;;;;-145.18;100.00;46558.81;5072630;28;20032;-67
2023/07/06 09:06:27;;;;;;;11.60;4.93;;;;;;;-145.18;100.00;46566.63;5072345;28;20025;-67
2023/07/06 09:09:01;;;;;;;9.97;5.03;;;;;;;-145.18;100.00;46558.81;5073898;28;20021;-67
2023/07/06 09:11:27;;;;;;;9.90;5.33;;;;;;;-145.18;100.00;46568.59;5080244;28;20114;-67
2023/07/06 09:13:56;;;;;;;9.33;4.23;;;;;;;-145.18;100.00;46566.63;5071886;28;20044;-67
2023/07/06 09:16:23;;;;;;;14.60;4.87;;;;;;;-145.18;100.00;46562.72;5072007;28;20115;-67
2023/07/06 09:18:52;;;;;;;12.07;4.90;;;;;;;-145.18;100.00;46566.63;5071851;28;20127;-67
2023/07/06 09:21:25;;;;;;;9.13;4.10;;;;;;;-145.18;100.00;46566.63;5063284;28;20096;-68
2023/07/06 09:23:50;;;;;;;10.17;4.53;;;;;;;-145.18;100.00;46572.50;5090841;28;20024;-68
2023/07/06 09:26:22;;;;;;;9.40;4.43;;;;;;;-145.18;100.00;46560.78;5079734;28;20044;-68
2023/07/06 09:28:48;;;;;;;12.90;4.57;;;;;;;-145.18;100.00;46552.97;5081886;28;20028;-67
2023/07/06 09:31:20;;;;;;;6.57;4.03;;;;;;;-145.18;100.00;46558.81;5073970;28;20035;-67
2023/07/06 09:33:48;;;;;;;7.20;3.63;;;;;;;-145.18;100.00;46568.59;5082827;28;20082;-68
2023/07/06 09:36:19;;;;;;;7.93;3.17;;;;;;;-145.18;100.00;46578.34;5078191;28;20035;-68
2023/07/06 09:38:45;;;;;;;8.70;3.83;;;;;;;-145.18;100.00;46582.25;5084062;28;20024;-67
2023/07/06 09:41:25;;;;;;;9.37;3.53;;;;;;;-145.18;100.00;46580.31;5087927;28;20547;-66
2023/07/06 09:43:57;;;;;;;9.50;4.07;;;;;;;-145.18;100.00;46572.50;5081341;28;20111;-68
2023/07/06 09:46:31;;;;;;;11.67;3.73;;;;;;;-145.18;100.00;46615.47;5083759;28;20019;-68
2023/07/06 09:48:56;;;;;;;11.37;3.47;;;;;;;-145.18;100.00;46582.25;5073447;28;20127;-68
2023/07/06 09:51:38;;;;;;;9.67;3.70;;;;;;;-145.18;100.00;47051.09;5084872;28;20163;-68
2023/07/06 09:54:11;;;;;;;6.00;2.70;;;;;;;-145.18;100.00;47072.56;5079170;28;20475;-67
2023/07/06 09:56:38;;;;;;;5.50;2.50;;;;;;;-145.18;100.00;47146.81;5075650;28;20468;-68
2023/07/06 09:59:03;;;;;;;8.97;2.57;;;;;;;-145.18;100.00;47199.56;5084107;28;20041;-68
2023/07/06 10:01:42;;;;;;;6.70;2.57;;;;;;;-145.18;100.00;47185.88;5074588;28;20161;-67
2023/07/06 10:04:46;;;;;;;6.67;2.40;;;;;;;-145.18;100.00;47197.59;5082623;28;20476;-67
2023/07/06 10:07:19;;;;;;;7.70;3.33;;;;;;;-145.18;100.00;47150.72;5084652;28;20036;-67
2023/07/06 10:09:58;;;;;;;8.43;2.60;;;;;;;-145.18;100.00;47146.81;5082575;28;20028;-68
2023/07/06 10:12:38;;;;;;;4.60;2.30;;;;;;;-145.18;100.00;47191.75;5077353;28;20383;-68
2023/07/06 10:15:44;;;;;;;6.43;2.67;;;;;;;-145.18;100.00;47189.78;5085345;28;20023;-67
2023/07/06 10:18:30;;;;;;;7.97;2.55;;;;;;;-145.18;100.00;47148.75;5013160;28;20047;-68
2023/07/06 10:21:04;;;;;;;8.48;2.70;;;;;;;-145.18;100.00;47121.41;5080370;28;20032;-68
2023/07/06 10:23:42;;;;;;;5.43;2.27;;;;;;;-145.18;100.00;47103.81;5086454;28;20083;-67
2023/07/06 10:26:14;;;;;;;5.67;2.10;;;;;;;-145.18;100.00;47137.03;5079224;28;20035;-67
2023/07/06 10:28:46;;;;;;;6.00;2.27;;;;;;;-145.18;100.00;47133.13;5077134;28;20028;-67
2023/07/06 10:31:17;;;;;;;4.77;1.90;;;;;;;-145.18;100.00;47096.00;5076128;28;20032;-68
2023/07/06 10:33:45;;;;;;;8.57;2.23;;;;;;;-145.18;100.00;47131.19;5085390;28;20478;-67
2023/07/06 10:36:13;;;;;;;8.97;2.27;;;;;;;-145.18;100.00;47236.66;5079309;28;20028;-68
2023/07/06 10:38:39;;;;;;;6.27;2.90;;;;;;;-145.18;100.00;47156.56;5087544;28;20020;-68
2023/07/06 10:41:10;;;;;;;6.70;3.20;;;;;;;-145.18;100.00;47201.50;5070963;28;20026;-68
2023/07/06 10:43:43;;;;;;;6.97;2.90;;;;;;;-145.18;100.00;47228.84;5085935;28;20021;-67
2023/07/06 10:46:35;;;;;;;7.70;2.10;;;;;;;-145.18;100.00;47160.47;5083548;28;20016;-68
2023/07/06 10:49:26;;;;;;;4.83;2.33;;;;;;;-145.18;100.00;47109.69;5087037;28;20060;-68
2023/07/06 10:51:55;;;;;;;3.50;1.70;;;;;;;-145.18;100.00;47160.47;5079676;28;20587;-68
2023/07/06 10:54:20;;;;;;;5.70;1.90;;;;;;;-145.18;100.00;47129.22;5078780;28;20399;-68
2023/07/06 10:57:10;;;;;;;4.33;1.67;;;;;;;-145.18;100.00;47125.31;5074568;28;20107;-68
2023/07/06 10:59:52;;;;;;;6.80;2.23;;;;;;;-145.18;100.00;47113.59;5069331;28;20025;-68
2023/07/06 11:02:33;;;;;;;2.90;1.60;;;;;;;-145.18;100.00;47125.31;5074764;28;20047;-68
2023/07/06 11:05:26;;;;;;;4.33;1.50;;;;;;;-145.18;100.00;47086.25;5074587;28;20063;-68
2023/07/06 11:07:57;;;;;;;2.47;1.30;;;;;;;-145.18;100.00;47084.28;5064409;28;20113;-68
2023/07/06 11:10:53;;;;;;;5.80;1.47;;;;;;;-145.18;100.00;47055.00;5080872;28;20070;-68